sensor_id;sensor_type;location;lat;lon;timestamp;temperature;humidity
46458;DHT22;32155;54.076;12.092;2023-04-01T00:02:28;7.00;99.90
46458;DHT22;32155;54.076;12.092;2023-04-01T00:04:53;7.00;99.90
46458;DHT22;32155;54.076;12.092;2023-04-01T00:07:22;7.00;99.90
46458;DHT22;32155;54.076;12.092;2023-04-01T00:09:54;7.00;99.90
46458;DHT22;32155;54.076;12.092;2023-04-01T00:12:21;7.00;99.90
46458;DHT22;32155;54.076;12.092;2023-04-01T00:14:47;7.10;99.90
46458;DHT22;32155;54.076;12.092;2023-04-01T00:17:13;7.00;99.90
46458;DHT22;32155;54.076;12.092;2023-04-01T00:19:40;7.00;99.90
46458;DHT22;32155;54.076;12.092;2023-04-01T00:22:07;6.90;99.90
46458;DHT22;32155;54.076;12.092;2023-04-01T00:24:34;7.00;99.90
46458;DHT22;32155;54.076;12.092;2023-04-01T00:27:00;7.00;99.90
46458;DHT22;32155;54.076;12.092;2023-04-01T00:29:26;6.90;99.90
46458;DHT22;32155;54.076;12.092;2023-04-01T00:31:57;6.80;99.90
46458;DHT22;32155;54.076;12.092;2023-04-01T00:34:23;6.70;99.90
46458;DHT22;32155;54.076;12.092;2023-04-01T00:36:49;6.60;99.90
46458;DHT22;32155;54.076;12.092;2023-04-01T00:39:16;6.70;99.90
46458;DHT22;32155;54.076;12.092;2023-04-01T00:41:42;6.60;99.90
46458;DHT22;32155;54.076;12.092;2023-04-01T00:44:26;6.60;99.90
46458;DHT22;32155;54.076;12.092;2023-04-01T00:46:52;6.60;99.90
46458;DHT22;32155;54.076;12.092;2023-04-01T00:49:21;6.60;99.90
46458;DHT22;32155;54.076;12.092;2023-04-01T00:51:52;6.60;99.90
46458;DHT22;32155;54.076;12.092;2023-04-01T00:54:23;6.70;99.90
46458;DHT22;32155;54.076;12.092;2023-04-01T00:56:55;6.60;99.90
46458;DHT22;32155;54.076;12.092;2023-04-01T00:59:29;6.50;99.90
46458;DHT22;32155;54.076;12.092;2023-04-01T01:01:56;6.60;99.90
46458;DHT22;32155;54.076;12.092;2023-04-01T01:04:32;6.50;99.90
46458;DHT22;32155;54.076;12.092;2023-04-01T01:07:28;6.50;99.90
46458;DHT22;32155;54.076;12.092;2023-04-01T01:10:26;6.70;99.90
46458;DHT22;32155;54.076;12.092;2023-04-01T01:34:28;6.40;99.90
46458;DHT22;32155;54.076;12.092;2023-04-01T01:37:15;6.40;99.90
46458;DHT22;32155;54.076;12.092;2023-04-01T01:39:43;6.30;99.90
46458;DHT22;32155;54.076;12.092;2023-04-01T01:42:13;6.30;99.90
46458;DHT22;32155;54.076;12.092;2023-04-01T01:44:41;6.20;99.90
46458;DHT22;32155;54.076;12.092;2023-04-01T01:47:10;6.20;99.90
46458;DHT22;32155;54.076;12.092;2023-04-01T01:49:39;6.10;99.90
46458;DHT22;32155;54.076;12.092;2023-04-01T01:52:05;6.00;99.90
46458;DHT22;32155;54.076;12.092;2023-04-01T01:54:31;6.10;99.90
46458;DHT22;32155;54.076;12.092;2023-04-01T01:57:07;6.20;99.90
46458;DHT22;32155;54.076;12.092;2023-04-01T01:59:37;6.10;99.90
46458;DHT22;32155;54.076;12.092;2023-04-01T02:02:05;6.10;99.90
46458;DHT22;32155;54.076;12.092;2023-04-01T02:04:37;6.10;99.90
46458;DHT22;32155;54.076;12.092;2023-04-01T02:07:08;6.10;99.90
46458;DHT22;32155;54.076;12.092;2023-04-01T02:09:36;6.10;99.90
46458;DHT22;32155;54.076;12.092;2023-04-01T02:12:11;6.10;99.90
46458;DHT22;32155;54.076;12.092;2023-04-01T02:14:50;6.10;99.90
46458;DHT22;32155;54.076;12.092;2023-04-01T02:17:20;6.00;99.90
46458;DHT22;32155;54.076;12.092;2023-04-01T02:22:26;5.80;99.90
46458;DHT22;32155;54.076;12.092;2023-04-01T02:24:57;5.90;99.90
46458;DHT22;32155;54.076;12.092;2023-04-01T02:27:23;5.80;99.90
46458;DHT22;32155;54.076;12.092;2023-04-01T02:29:50;5.80;99.90
46458;DHT22;32155;54.076;12.092;2023-04-01T02:32:19;5.70;99.90
46458;DHT22;32155;54.076;12.092;2023-04-01T02:34:51;5.70;99.90
46458;DHT22;32155;54.076;12.092;2023-04-01T02:37:17;5.70;99.90
46458;DHT22;32155;54.076;12.092;2023-04-01T02:39:43;5.70;99.90
46458;DHT22;32155;54.076;12.092;2023-04-01T02:42:14;5.70;99.90
46458;DHT22;32155;54.076;12.092;2023-04-01T02:44:42;5.60;99.90
46458;DHT22;32155;54.076;12.092;2023-04-01T02:47:07;5.60;99.90
46458;DHT22;32155;54.076;12.092;2023-04-01T02:49:43;5.60;99.90
46458;DHT22;32155;54.076;12.092;2023-04-01T02:52:11;5.60;99.90
46458;DHT22;32155;54.076;12.092;2023-04-01T02:54:38;5.50;99.90
46458;DHT22;32155;54.076;12.092;2023-04-01T02:57:03;5.50;99.90
46458;DHT22;32155;54.076;12.092;2023-04-01T02:59:33;5.60;99.90
46458;DHT22;32155;54.076;12.092;2023-04-01T03:01:58;5.60;99.90
46458;DHT22;32155;54.076;12.092;2023-04-01T03:04:26;5.50;99.90
46458;DHT22;32155;54.076;12.092;2023-04-01T03:06:57;5.60;99.90
46458;DHT22;32155;54.076;12.092;2023-04-01T03:09:22;5.60;99.90
46458;DHT22;32155;54.076;12.092;2023-04-01T03:11:48;5.60;99.90
46458;DHT22;32155;54.076;12.092;2023-04-01T03:14:14;5.60;99.90
46458;DHT22;32155;54.076;12.092;2023-04-01T03:16:39;5.50;99.90
46458;DHT22;32155;54.076;12.092;2023-04-01T03:19:05;5.50;99.90
46458;DHT22;32155;54.076;12.092;2023-04-01T03:21:31;5.60;99.90
46458;DHT22;32155;54.076;12.092;2023-04-01T03:23:59;5.60;99.90
46458;DHT22;32155;54.076;12.092;2023-04-01T03:26:33;5.60;99.90
46458;DHT22;32155;54.076;12.092;2023-04-01T03:28:59;5.60;99.90
46458;DHT22;32155;54.076;12.092;2023-04-01T03:31:25;5.50;99.90
46458;DHT22;32155;54.076;12.092;2023-04-01T03:33:53;5.50;99.90
46458;DHT22;32155;54.076;12.092;2023-04-01T03:36:18;5.40;99.90
46458;DHT22;32155;54.076;12.092;2023-04-01T03:38:44;5.40;99.90
46458;DHT22;32155;54.076;12.092;2023-04-01T03:41:17;5.40;99.90
46458;DHT22;32155;54.076;12.092;2023-04-01T03:43:46;5.40;99.90
46458;DHT22;32155;54.076;12.092;2023-04-01T03:46:18;5.40;99.90
46458;DHT22;32155;54.076;12.092;2023-04-01T03:48:43;5.30;99.90
46458;DHT22;32155;54.076;12.092;2023-04-01T03:51:09;5.30;99.90
46458;DHT22;32155;54.076;12.092;2023-04-01T03:53:35;5.40;99.90
46458;DHT22;32155;54.076;12.092;2023-04-01T03:56:08;5.40;99.90
46458;DHT22;32155;54.076;12.092;2023-04-01T03:58:34;5.30;99.90
46458;DHT22;32155;54.076;12.092;2023-04-01T04:01:19;5.40;99.90
46458;DHT22;32155;54.076;12.092;2023-04-01T04:03:46;5.30;99.90
46458;DHT22;32155;54.076;12.092;2023-04-01T04:06:13;5.30;99.90
46458;DHT22;32155;54.076;12.092;2023-04-01T04:08:41;5.40;99.90
46458;DHT22;32155;54.076;12.092;2023-04-01T04:11:10;5.40;99.90
46458;DHT22;32155;54.076;12.092;2023-04-01T04:13:36;5.40;99.90
46458;DHT22;32155;54.076;12.092;2023-04-01T04:16:02;5.40;99.90
46458;DHT22;32155;54.076;12.092;2023-04-01T04:18:28;5.40;99.90
46458;DHT22;32155;54.076;12.092;2023-04-01T04:20:54;5.40;99.90
46458;DHT22;32155;54.076;12.092;2023-04-01T04:23:20;5.50;99.90
46458;DHT22;32155;54.076;12.092;2023-04-01T04:26:04;5.50;99.90
46458;DHT22;32155;54.076;12.092;2023-04-01T04:28:30;5.50;99.90
46458;DHT22;32155;54.076;12.092;2023-04-01T04:30:55;5.40;99.90
46458;DHT22;32155;54.076;12.092;2023-04-01T04:33:24;5.40;99.90
46458;DHT22;32155;54.076;12.092;2023-04-01T04:35:50;5.40;99.90
46458;DHT22;32155;54.076;12.092;2023-04-01T04:38:17;5.40;99.90
46458;DHT22;32155;54.076;12.092;2023-04-01T04:40:45;5.40;99.90
46458;DHT22;32155;54.076;12.092;2023-04-01T04:43:12;5.50;99.90
46458;DHT22;32155;54.076;12.092;2023-04-01T04:45:38;5.50;99.90
46458;DHT22;32155;54.076;12.092;2023-04-01T04:48:03;5.50;99.90
46458;DHT22;32155;54.076;12.092;2023-04-01T04:50:29;5.60;99.90
46458;DHT22;32155;54.076;12.092;2023-04-01T04:52:55;5.50;99.90
46458;DHT22;32155;54.076;12.092;2023-04-01T04:55:21;5.50;99.90
46458;DHT22;32155;54.076;12.092;2023-04-01T04:57:47;5.40;99.90
46458;DHT22;32155;54.076;12.092;2023-04-01T05:00:13;5.50;99.90
46458;DHT22;32155;54.076;12.092;2023-04-01T05:02:38;5.40;99.90
46458;DHT22;32155;54.076;12.092;2023-04-01T05:05:13;5.40;99.90
46458;DHT22;32155;54.076;12.092;2023-04-01T05:07:39;5.40;99.90
46458;DHT22;32155;54.076;12.092;2023-04-01T05:10:05;5.40;99.90
46458;DHT22;32155;54.076;12.092;2023-04-01T05:12:31;5.40;99.90
46458;DHT22;32155;54.076;12.092;2023-04-01T05:15:05;5.40;99.90
46458;DHT22;32155;54.076;12.092;2023-04-01T05:17:31;5.40;99.90
46458;DHT22;32155;54.076;12.092;2023-04-01T05:19:59;5.40;99.90
46458;DHT22;32155;54.076;12.092;2023-04-01T05:22:27;5.30;99.90
46458;DHT22;32155;54.076;12.092;2023-04-01T05:24:55;5.30;99.90
46458;DHT22;32155;54.076;12.092;2023-04-01T05:27:21;5.30;99.90
46458;DHT22;32155;54.076;12.092;2023-04-01T05:29:47;5.30;99.90
46458;DHT22;32155;54.076;12.092;2023-04-01T05:32:12;5.30;99.90
46458;DHT22;32155;54.076;12.092;2023-04-01T05:34:40;5.20;99.90
46458;DHT22;32155;54.076;12.092;2023-04-01T05:37:08;5.20;99.90
46458;DHT22;32155;54.076;12.092;2023-04-01T05:39:38;5.20;99.90
46458;DHT22;32155;54.076;12.092;2023-04-01T05:42:07;5.10;99.90
46458;DHT22;32155;54.076;12.092;2023-04-01T05:44:34;5.20;99.90
46458;DHT22;32155;54.076;12.092;2023-04-01T05:47:02;5.10;99.90
46458;DHT22;32155;54.076;12.092;2023-04-01T05:49:27;5.10;99.90
46458;DHT22;32155;54.076;12.092;2023-04-01T05:51:53;5.20;99.90
46458;DHT22;32155;54.076;12.092;2023-04-01T05:54:20;5.30;99.90
46458;DHT22;32155;54.076;12.092;2023-04-01T05:56:46;5.30;99.90
46458;DHT22;32155;54.076;12.092;2023-04-01T05:59:12;5.30;99.90
46458;DHT22;32155;54.076;12.092;2023-04-01T06:01:38;5.40;99.90
46458;DHT22;32155;54.076;12.092;2023-04-01T06:04:04;5.30;99.90
46458;DHT22;32155;54.076;12.092;2023-04-01T06:06:31;5.30;99.90
46458;DHT22;32155;54.076;12.092;2023-04-01T06:15:03;5.30;99.90
46458;DHT22;32155;54.076;12.092;2023-04-01T06:18:17;5.40;99.90
46458;DHT22;32155;54.076;12.092;2023-04-01T06:26:42;5.30;99.90
46458;DHT22;32155;54.076;12.092;2023-04-01T06:32:27;5.40;99.90
46458;DHT22;32155;54.076;12.092;2023-04-01T06:35:22;5.50;99.90
46458;DHT22;32155;54.076;12.092;2023-04-01T06:38:09;5.50;99.90
46458;DHT22;32155;54.076;12.092;2023-04-01T06:46:04;5.40;99.90
46458;DHT22;32155;54.076;12.092;2023-04-01T06:48:43;5.50;99.90
46458;DHT22;32155;54.076;12.092;2023-04-01T06:54:21;5.50;99.90
46458;DHT22;32155;54.076;12.092;2023-04-01T06:56:54;5.50;99.90
46458;DHT22;32155;54.076;12.092;2023-04-01T06:59:25;5.60;99.90
46458;DHT22;32155;54.076;12.092;2023-04-01T07:02:17;5.50;99.90
46458;DHT22;32155;54.076;12.092;2023-04-01T07:04:48;5.50;99.90
46458;DHT22;32155;54.076;12.092;2023-04-01T07:07:35;5.50;99.90
46458;DHT22;32155;54.076;12.092;2023-04-01T07:10:04;5.40;99.90
46458;DHT22;32155;54.076;12.092;2023-04-01T07:15:23;5.40;99.90
46458;DHT22;32155;54.076;12.092;2023-04-01T07:18:03;5.30;99.90
46458;DHT22;32155;54.076;12.092;2023-04-01T07:20:35;5.30;99.90
46458;DHT22;32155;54.076;12.092;2023-04-01T07:23:22;5.40;99.90
46458;DHT22;32155;54.076;12.092;2023-04-01T07:25:56;5.40;99.90
46458;DHT22;32155;54.076;12.092;2023-04-01T07:28:30;5.50;99.90
46458;DHT22;32155;54.076;12.092;2023-04-01T07:36:24;5.50;99.90
46458;DHT22;32155;54.076;12.092;2023-04-01T07:39:11;5.60;99.90
46458;DHT22;32155;54.076;12.092;2023-04-01T07:41:58;5.50;99.90
46458;DHT22;32155;54.076;12.092;2023-04-01T07:44:33;5.50;99.90
46458;DHT22;32155;54.076;12.092;2023-04-01T07:47:10;5.40;99.90
46458;DHT22;32155;54.076;12.092;2023-04-01T07:52:40;5.40;99.90
46458;DHT22;32155;54.076;12.092;2023-04-01T07:55:48;5.40;99.90
46458;DHT22;32155;54.076;12.092;2023-04-01T08:01:17;5.50;99.90
46458;DHT22;32155;54.076;12.092;2023-04-01T08:04:15;5.50;99.90
46458;DHT22;32155;54.076;12.092;2023-04-01T08:09:56;5.20;99.90
46458;DHT22;32155;54.076;12.092;2023-04-01T08:18:33;5.10;99.90
46458;DHT22;32155;54.076;12.092;2023-04-01T08:21:08;5.30;99.90
46458;DHT22;32155;54.076;12.092;2023-04-01T08:23:58;5.30;99.90
46458;DHT22;32155;54.076;12.092;2023-04-01T08:26:45;5.30;99.90
46458;DHT22;32155;54.076;12.092;2023-04-01T08:29:16;5.20;99.90
46458;DHT22;32155;54.076;12.092;2023-04-01T08:32:09;5.30;99.90
46458;DHT22;32155;54.076;12.092;2023-04-01T08:34:44;5.30;99.90
46458;DHT22;32155;54.076;12.092;2023-04-01T08:37:28;5.40;99.90
46458;DHT22;32155;54.076;12.092;2023-04-01T08:46:06;5.30;99.90
46458;DHT22;32155;54.076;12.092;2023-04-01T09:13:58;5.30;99.90
46458;DHT22;32155;54.076;12.092;2023-04-01T09:22:02;5.10;99.90
46458;DHT22;32155;54.076;12.092;2023-04-01T09:27:25;5.00;99.90
46458;DHT22;32155;54.076;12.092;2023-04-01T09:33:17;5.30;99.90
46458;DHT22;32155;54.076;12.092;2023-04-01T09:38:52;5.30;99.90
46458;DHT22;32155;54.076;12.092;2023-04-01T09:45:07;5.40;99.90
46458;DHT22;32155;54.076;12.092;2023-04-01T10:18:51;5.70;99.90
46458;DHT22;32155;54.076;12.092;2023-04-01T11:44:04;5.60;99.90
46458;DHT22;32155;54.076;12.092;2023-04-01T12:01:42;5.60;99.90
46458;DHT22;32155;54.076;12.092;2023-04-01T12:10:21;5.60;99.90
46458;DHT22;32155;54.076;12.092;2023-04-01T12:12:58;5.50;99.90
46458;DHT22;32155;54.076;12.092;2023-04-01T12:24:02;5.50;99.90
46458;DHT22;32155;54.076;12.092;2023-04-01T12:34:54;5.50;99.90
46458;DHT22;32155;54.076;12.092;2023-04-01T12:45:34;5.40;99.90
46458;DHT22;32155;54.076;12.092;2023-04-01T12:56:21;5.30;99.90
46458;DHT22;32155;54.076;12.092;2023-04-01T13:07:22;5.50;99.90
46458;DHT22;32155;54.076;12.092;2023-04-01T13:25:29;5.50;99.90
46458;DHT22;32155;54.076;12.092;2023-04-01T13:30:53;5.60;99.90
46458;DHT22;32155;54.076;12.092;2023-04-01T13:33:50;5.60;99.90
46458;DHT22;32155;54.076;12.092;2023-04-01T13:44:35;5.40;99.90
46458;DHT22;32155;54.076;12.092;2023-04-01T13:57:52;5.50;99.90
46458;DHT22;32155;54.076;12.092;2023-04-01T14:00:40;5.60;99.90
46458;DHT22;32155;54.076;12.092;2023-04-01T14:05:53;5.60;99.90
46458;DHT22;32155;54.076;12.092;2023-04-01T14:22:30;5.00;99.90
46458;DHT22;32155;54.076;12.092;2023-04-01T14:33:46;5.20;99.90
46458;DHT22;32155;54.076;12.092;2023-04-01T14:36:46;5.20;99.90
46458;DHT22;32155;54.076;12.092;2023-04-01T14:51:41;5.40;99.90
46458;DHT22;32155;54.076;12.092;2023-04-01T14:54:41;5.50;99.90
46458;DHT22;32155;54.076;12.092;2023-04-01T15:08:32;5.20;99.90
46458;DHT22;32155;54.076;12.092;2023-04-01T15:11:12;5.20;99.90
46458;DHT22;32155;54.076;12.092;2023-04-01T15:39:23;4.70;99.90
46458;DHT22;32155;54.076;12.092;2023-04-01T17:40:19;3.90;99.90
46458;DHT22;32155;54.076;12.092;2023-04-01T20:00:40;2.80;99.90
46458;DHT22;32155;54.076;12.092;2023-04-01T20:06:10;2.70;99.90
46458;DHT22;32155;54.076;12.092;2023-04-01T20:14:57;2.50;99.90
46458;DHT22;32155;54.076;12.092;2023-04-01T20:17:44;2.50;99.90
46458;DHT22;32155;54.076;12.092;2023-04-01T20:23:05;2.40;99.90
46458;DHT22;32155;54.076;12.092;2023-04-01T20:26:32;2.30;99.90
46458;DHT22;32155;54.076;12.092;2023-04-01T20:29:04;2.40;99.90
46458;DHT22;32155;54.076;12.092;2023-04-01T20:31:43;2.30;99.90
46458;DHT22;32155;54.076;12.092;2023-04-01T20:48:38;2.00;99.90
46458;DHT22;32155;54.076;12.092;2023-04-01T20:51:29;2.00;99.90
46458;DHT22;32155;54.076;12.092;2023-04-01T20:57:09;2.00;99.90
46458;DHT22;32155;54.076;12.092;2023-04-01T21:02:46;1.90;99.90
46458;DHT22;32155;54.076;12.092;2023-04-01T21:05:32;2.00;99.90
46458;DHT22;32155;54.076;12.092;2023-04-01T21:11:03;1.90;99.90
46458;DHT22;32155;54.076;12.092;2023-04-01T21:16:46;1.90;99.90
46458;DHT22;32155;54.076;12.092;2023-04-01T21:22:33;1.80;99.90
46458;DHT22;32155;54.076;12.092;2023-04-01T21:31:00;1.70;99.90
46458;DHT22;32155;54.076;12.092;2023-04-01T21:33:35;1.70;99.90
46458;DHT22;32155;54.076;12.092;2023-04-01T22:01:47;1.50;99.90
46458;DHT22;32155;54.076;12.092;2023-04-01T22:09:38;1.70;99.90
46458;DHT22;32155;54.076;12.092;2023-04-01T22:12:30;1.60;99.90
46458;DHT22;32155;54.076;12.092;2023-04-01T22:15:08;1.60;99.90
46458;DHT22;32155;54.076;12.092;2023-04-01T22:29:13;1.50;99.90
46458;DHT22;32155;54.076;12.092;2023-04-01T22:32:06;1.60;99.90
46458;DHT22;32155;54.076;12.092;2023-04-01T22:45:19;1.80;99.90
46458;DHT22;32155;54.076;12.092;2023-04-01T22:48:12;1.80;99.90
46458;DHT22;32155;54.076;12.092;2023-04-01T22:51:05;1.80;99.90
46458;DHT22;32155;54.076;12.092;2023-04-01T22:53:57;1.90;99.90
46458;DHT22;32155;54.076;12.092;2023-04-01T22:56:43;1.90;99.90
46458;DHT22;32155;54.076;12.092;2023-04-01T22:59:16;2.00;99.90
46458;DHT22;32155;54.076;12.092;2023-04-01T23:01:57;2.20;99.90
46458;DHT22;32155;54.076;12.092;2023-04-01T23:04:31;2.20;99.90
46458;DHT22;32155;54.076;12.092;2023-04-01T23:07:06;2.30;99.90
46458;DHT22;32155;54.076;12.092;2023-04-01T23:09:43;2.40;99.90
46458;DHT22;32155;54.076;12.092;2023-04-01T23:12:14;2.40;99.90
46458;DHT22;32155;54.076;12.092;2023-04-01T23:14:51;2.50;99.90
46458;DHT22;32155;54.076;12.092;2023-04-01T23:17:42;2.60;99.90
46458;DHT22;32155;54.076;12.092;2023-04-01T23:20:27;2.70;99.90
46458;DHT22;32155;54.076;12.092;2023-04-01T23:23:33;2.60;99.90
46458;DHT22;32155;54.076;12.092;2023-04-01T23:28:59;2.60;99.90
46458;DHT22;32155;54.076;12.092;2023-04-01T23:31:38;2.70;99.90
46458;DHT22;32155;54.076;12.092;2023-04-01T23:36:40;2.60;99.90
46458;DHT22;32155;54.076;12.092;2023-04-01T23:42:06;2.70;99.90
46458;DHT22;32155;54.076;12.092;2023-04-01T23:44:36;2.70;99.90
46458;DHT22;32155;54.076;12.092;2023-04-01T23:47:03;2.90;99.90
46458;DHT22;32155;54.076;12.092;2023-04-01T23:49:55;2.80;99.90
46458;DHT22;32155;54.076;12.092;2023-04-01T23:52:27;2.80;99.90
46458;DHT22;32155;54.076;12.092;2023-04-01T23:55:35;2.80;99.90
46458;DHT22;32155;54.076;12.092;2023-04-01T23:57:42;2.80;99.90
